TimeCST,TemperatureF,Dew PointF,Humidity,Sea Level PressureIn,VisibilityMPH,Wind Direction,Wind SpeedMPH,Gust SpeedMPH,PrecipitationIn,Events,Conditions,WindDirDegrees,DateUTC
12:05 AM,15.8,10.4,79,29.76,7.0,West,20.7,-,N/A,Snow,Light Snow,280,2013-01-31 06:05:00
12:52 AM,14.0,10.0,84,29.81,9.0,West,16.1,-,N/A,,Mostly Cloudy,280,2013-01-31 06:52:00
1:52 AM,17.1,10.9,77,29.83,10.0,West,24.2,27.6,N/A,,Overcast,280,2013-01-31 07:52:00
2:52 AM,16.0,10.0,77,29.84,10.0,WNW,18.4,-,N/A,,Overcast,290,2013-01-31 08:52:00
3:21 AM,15.8,8.6,73,29.80,2.5,WNW,25.3,31.1,N/A,Snow,Light Snow,290,2013-01-31 09:21:00
3:27 AM,14.0,8.6,79,29.80,1.0,WNW,25.3,34.5,N/A,Snow,Light Snow,290,2013-01-31 09:27:00
3:39 AM,12.2,6.8,79,29.81,2.0,WNW,25.3,32.2,N/A,Snow,Light Snow,290,2013-01-31 09:39:00
3:44 AM,12.2,6.8,79,29.81,3.0,West,20.7,32.2,N/A,Rain,Light Freezing Rain,280,2013-01-31 09:44:00
3:52 AM,12.0,5.0,73,29.85,8.0,WNW,25.3,29.9,N/A,Rain,Light Freezing Rain,290,2013-01-31 09:52:00
4:18 AM,10.4,5.0,79,29.82,9.0,WNW,18.4,-,N/A,,Clear,290,2013-01-31 10:18:00
4:52 AM,10.9,5.0,77,29.88,10.0,West,19.6,25.3,N/A,,Scattered Clouds,280,2013-01-31 10:52:00
5:05 AM,10.4,5.0,79,29.84,10.0,WNW,19.6,-,N/A,,Mostly Cloudy,290,2013-01-31 11:05:00
5:12 AM,10.4,3.2,73,29.84,10.0,WNW,19.6,25.3,N/A,,Scattered Clouds,290,2013-01-31 11:12:00
5:52 AM,10.0,3.9,76,29.89,10.0,WNW,15.0,-,N/A,,Clear,290,2013-01-31 11:52:00
6:52 AM,9.0,3.9,80,29.91,10.0,West,16.1,-,N/A,,Clear,280,2013-01-31 12:52:00
7:44 AM,8.6,3.2,79,29.89,7.0,West,19.6,-,N/A,,Mostly Cloudy,280,2013-01-31 13:44:00
7:52 AM,9.0,3.9,80,29.94,7.0,West,19.6,-,N/A,,Mostly Cloudy,280,2013-01-31 13:52:00
8:02 AM,8.6,3.2,79,29.90,7.0,WNW,19.6,-,N/A,,Scattered Clouds,290,2013-01-31 14:02:00
8:10 AM,8.6,3.2,79,29.90,6.0,WNW,17.3,-,N/A,,Haze,290,2013-01-31 14:10:00
8:30 AM,8.6,3.2,79,29.91,1.8,WNW,18.4,-,N/A,Snow,Light Snow,290,2013-01-31 14:30:00
8:40 AM,8.6,3.2,79,29.91,3.0,WNW,19.6,25.3,N/A,,Haze,290,2013-01-31 14:40:00
8:52 AM,9.0,3.0,77,29.96,4.0,WNW,24.2,27.6,N/A,,Haze,290,2013-01-31 14:52:00
9:17 AM,8.6,1.4,73,29.93,9.0,WNW,20.7,26.5,N/A,,Scattered Clouds,300,2013-01-31 15:17:00
9:52 AM,9.0,1.9,73,29.99,10.0,WNW,19.6,-,N/A,,Clear,290,2013-01-31 15:52:00
10:36 AM,10.4,3.2,73,29.96,7.0,WNW,23.0,-,N/A,,Mostly Cloudy,290,2013-01-31 16:36:00
10:52 AM,10.9,3.9,73,30.02,5.0,West,23.0,-,N/A,,Haze,280,2013-01-31 16:52:00
11:16 AM,10.4,3.2,73,29.98,1.8,West,20.7,-,N/A,Snow,Light Snow,280,2013-01-31 17:16:00
11:31 AM,10.4,3.2,73,29.99,3.0,West,21.9,27.6,N/A,Snow,Light Snow,280,2013-01-31 17:31:00
11:52 AM,10.0,3.0,73,30.04,9.0,West,25.3,31.1,N/A,,Overcast,280,2013-01-31 17:52:00
12:52 PM,10.0,3.0,73,30.05,6.0,West,24.2,-,N/A,,Haze,280,2013-01-31 18:52:00
1:34 PM,8.6,1.4,73,30.01,2.0,WNW,25.3,31.1,N/A,Snow,Light Snow,290,2013-01-31 19:34:00
1:43 PM,8.6,1.4,73,30.01,5.0,WNW,26.5,31.1,N/A,,Haze,290,2013-01-31 19:43:00
1:52 PM,9.0,1.9,73,30.06,3.0,West,24.2,-,N/A,,Haze,280,2013-01-31 19:52:00
2:14 PM,8.6,1.4,73,30.02,2.0,WNW,24.2,-,N/A,,Haze,290,2013-01-31 20:14:00
2:31 PM,8.6,1.4,73,30.03,6.0,WNW,25.3,-,N/A,,Haze,290,2013-01-31 20:31:00
2:52 PM,8.1,1.0,73,30.09,2.5,West,25.3,34.5,N/A,,Haze,280,2013-01-31 20:52:00
3:11 PM,6.8,1.4,79,30.05,1.5,West,25.3,32.2,N/A,Snow,Light Snow,280,2013-01-31 21:11:00
3:22 PM,6.8,-0.4,72,30.06,2.0,West,25.3,33.4,N/A,,Haze,280,2013-01-31 21:22:00
3:35 PM,6.8,1.4,79,30.06,0.8,West,26.5,33.4,N/A,Snow,Light Snow,280,2013-01-31 21:35:00
3:42 PM,6.8,1.4,79,30.07,0.5,WNW,25.3,32.2,N/A,Snow,Snow,290,2013-01-31 21:42:00
3:52 PM,8.1,1.0,73,30.12,0.8,West,28.8,34.5,N/A,,Unknown,280,2013-01-31 21:52:00
4:00 PM,6.8,1.4,79,30.07,1.0,West,27.6,34.5,N/A,Rain,Light Freezing Rain,280,2013-01-31 22:00:00
4:18 PM,6.8,-0.4,72,30.08,2.5,WNW,26.5,33.4,N/A,Rain,Light Freezing Rain,290,2013-01-31 22:18:00
4:27 PM,6.8,-0.4,72,30.08,1.8,WNW,26.5,33.4,N/A,,Haze,290,2013-01-31 22:27:00
4:33 PM,6.8,1.4,79,30.09,0.8,WNW,25.3,-,N/A,Snow,Light Snow,300,2013-01-31 22:33:00
4:52 PM,5.0,1.0,84,30.15,0.8,West,27.6,33.4,N/A,Rain,Light Freezing Rain,280,2013-01-31 22:52:00
5:02 PM,6.8,1.4,79,30.10,0.2,WNW,24.2,34.5,N/A,Snow,Heavy Snow,300,2013-01-31 23:02:00
5:14 PM,5.0,-2.2,72,30.10,0.5,WNW,26.5,36.8,N/A,,Unknown,290,2013-01-31 23:14:00
5:17 PM,3.2,-2.2,78,30.11,1.0,WNW,26.5,36.8,N/A,,Unknown,290,2013-01-31 23:17:00
5:22 PM,3.2,-2.2,78,30.11,2.0,WNW,23.0,32.2,N/A,Rain,Light Freezing Rain,300,2013-01-31 23:22:00
5:30 PM,3.2,-2.2,78,30.12,7.0,WNW,23.0,-,N/A,Rain,Light Freezing Rain,290,2013-01-31 23:30:00
5:46 PM,3.2,-2.2,78,30.13,6.0,WNW,25.3,31.1,N/A,,Haze,290,2013-01-31 23:46:00
5:52 PM,3.9,-2.0,76,30.19,5.0,WNW,24.2,33.4,N/A,,Haze,290,2013-01-31 23:52:00
6:01 PM,3.2,-2.2,78,30.13,6.0,WNW,25.3,31.1,N/A,,Haze,290,2013-02-01 00:01:00
6:13 PM,3.2,-2.2,78,30.14,8.0,WNW,23.0,29.9,N/A,,Overcast,290,2013-02-01 00:13:00
6:41 PM,3.2,-2.2,78,30.15,9.0,WNW,23.0,-,N/A,,Overcast,300,2013-02-01 00:41:00
6:52 PM,3.9,-2.9,73,30.21,8.0,WNW,25.3,34.5,N/A,,Overcast,300,2013-02-01 00:52:00
7:45 PM,3.2,-4.0,72,30.18,10.0,WNW,25.3,29.9,N/A,,Scattered Clouds,300,2013-02-01 01:45:00
7:52 PM,3.0,-2.9,76,30.25,4.0,WNW,20.7,31.1,N/A,,Haze,300,2013-02-01 01:52:00
8:27 PM,1.4,-2.2,85,30.20,1.8,WNW,23.0,28.8,N/A,Snow,Light Snow,300,2013-02-01 02:27:00
8:32 PM,1.4,-2.2,85,30.21,0.8,WNW,19.6,28.8,N/A,Snow,Light Snow,300,2013-02-01 02:32:00
8:41 PM,1.4,-4.0,78,30.21,2.0,NW,21.9,29.9,N/A,Snow,Light Snow,310,2013-02-01 02:41:00
8:52 PM,1.9,-5.1,72,30.27,7.0,WNW,21.9,29.9,N/A,,Overcast,300,2013-02-01 02:52:00
9:04 PM,1.4,-5.8,72,30.21,9.0,NW,18.4,29.9,N/A,,Mostly Cloudy,310,2013-02-01 03:04:00
9:15 PM,1.4,-5.8,72,30.21,10.0,NW,19.6,29.9,N/A,,Scattered Clouds,310,2013-02-01 03:15:00
9:52 PM,1.0,-6.0,72,30.29,10.0,WNW,21.9,27.6,N/A,,Scattered Clouds,300,2013-02-01 03:52:00
10:01 PM,1.4,-5.8,72,30.24,9.0,WNW,21.9,26.5,N/A,,Mostly Cloudy,300,2013-02-01 04:01:00
10:52 PM,1.0,-7.1,69,30.31,10.0,WNW,17.3,25.3,N/A,,Mostly Cloudy,300,2013-02-01 04:52:00
11:14 PM,-0.4,-7.6,72,30.27,10.0,WNW,20.7,25.3,N/A,,Scattered Clouds,300,2013-02-01 05:14:00
11:52 PM,-0.0,-7.1,72,30.34,10.0,WNW,21.9,-,N/A,,Partly Cloudy,290,2013-02-01 05:52:00